createdAt,value
2019-01-23T00:00:36.339Z,0.10
2019-01-23T00:03:06.004Z,0.10
2019-01-23T00:05:35.462Z,0.10
2019-01-23T00:08:05.890Z,0.10
2019-01-23T00:10:35.355Z,0.10
2019-01-23T00:13:04.841Z,0.10
2019-01-23T00:15:34.377Z,0.10
2019-01-23T00:18:03.802Z,0.10
2019-01-23T00:20:33.305Z,0.10
2019-01-23T00:23:02.681Z,0.10
2019-01-23T00:25:32.142Z,0.10
2019-01-23T00:28:01.609Z,0.00
2019-01-23T00:30:31.061Z,0.00
2019-01-23T00:33:00.561Z,0.00
2019-01-23T00:35:30.030Z,0.00
2019-01-23T00:37:59.516Z,0.00
2019-01-23T00:40:28.990Z,0.00
2019-01-23T00:42:58.366Z,0.00
2019-01-23T00:45:27.829Z,0.00
2019-01-23T00:47:57.257Z,0.00
2019-01-23T00:50:26.649Z,0.00
2019-01-23T00:52:56.058Z,0.00
2019-01-23T00:55:25.410Z,0.00
2019-01-23T00:57:54.830Z,0.10
2019-01-23T01:00:25.562Z,0.10
2019-01-23T01:02:55.783Z,0.10
2019-01-23T01:05:25.345Z,0.00
2019-01-23T01:07:54.844Z,0.00
2019-01-23T01:10:24.499Z,0.00
2019-01-23T01:12:53.901Z,0.00
2019-01-23T01:15:23.359Z,0.00
2019-01-23T01:17:52.849Z,0.00
2019-01-23T01:20:22.308Z,0.00
2019-01-23T01:22:51.806Z,-0.10
2019-01-23T01:25:21.298Z,0.00
2019-01-23T01:27:50.758Z,-0.10
2019-01-23T01:30:22.263Z,-0.10
2019-01-23T01:32:51.658Z,-0.10
2019-01-23T01:37:50.486Z,-0.10
2019-01-23T01:40:20.494Z,-0.20
2019-01-23T01:42:50.004Z,-0.20
2019-01-23T01:45:19.452Z,-0.20
2019-01-23T01:47:48.891Z,-0.30
2019-01-23T01:50:20.105Z,-0.30
2019-01-23T01:52:49.702Z,-0.30
2019-01-23T01:55:19.136Z,-0.30
2019-01-23T01:57:48.748Z,-0.30
2019-01-23T02:00:23.025Z,-0.30
2019-01-23T02:02:52.440Z,-0.30
2019-01-23T02:05:21.869Z,-0.40
2019-01-23T02:07:51.334Z,-0.40
2019-01-23T02:10:21.722Z,-0.40
2019-01-23T02:12:51.512Z,-0.30
2019-01-23T02:15:21.621Z,-0.30
2019-01-23T02:17:51.008Z,-0.20
2019-01-23T02:20:22.721Z,-0.20
2019-01-23T02:22:52.300Z,-0.10
2019-01-23T02:25:21.824Z,-0.10
2019-01-23T02:27:51.401Z,-0.10
2019-01-23T02:30:24.949Z,-0.10
2019-01-23T02:32:54.495Z,0.00
2019-01-23T02:35:23.908Z,-0.10
2019-01-23T02:37:53.445Z,-0.10
2019-01-23T02:40:25.576Z,-0.10
2019-01-23T02:42:55.092Z,-0.10
2019-01-23T02:45:24.835Z,-0.10
2019-01-23T02:47:54.273Z,-0.20
2019-01-23T02:50:23.843Z,-0.20
2019-01-23T02:52:53.261Z,-0.20
2019-01-23T02:55:22.771Z,-0.20
2019-01-23T02:57:52.198Z,-0.30
2019-01-23T03:00:21.805Z,-0.30
2019-01-23T03:02:51.565Z,-0.30
2019-01-23T03:05:21.926Z,-0.30
2019-01-23T03:07:51.734Z,-0.30
2019-01-23T03:10:22.314Z,-0.40
2019-01-23T03:12:51.809Z,-0.40
2019-01-23T03:15:21.290Z,-0.40
2019-01-23T03:17:50.730Z,-0.50
2019-01-23T03:20:21.295Z,-0.50
2019-01-23T03:22:50.755Z,-0.50
2019-01-23T03:25:20.345Z,-0.50
2019-01-23T03:27:49.704Z,-0.50
2019-01-23T03:30:23.822Z,-0.40
2019-01-23T03:32:53.405Z,-0.40
2019-01-23T03:35:22.858Z,-0.40
2019-01-23T03:37:52.351Z,-0.50
2019-01-23T03:40:22.547Z,-0.50
2019-01-23T03:42:52.079Z,-0.60
2019-01-23T03:45:21.515Z,-0.50
2019-01-23T03:47:50.960Z,-0.50
2019-01-23T03:50:21.033Z,-0.50
2019-01-23T03:52:50.470Z,-0.60
2019-01-23T03:55:20.618Z,-0.50
2019-01-23T03:57:50.140Z,-0.50
2019-01-23T04:00:21.133Z,-0.50
2019-01-23T04:02:51.490Z,-0.50
2019-01-23T04:05:20.918Z,-0.50
2019-01-23T04:07:50.520Z,-0.50
2019-01-23T04:10:19.950Z,-0.50
2019-01-23T04:12:49.365Z,-0.60
2019-01-23T04:15:18.899Z,-0.60
2019-01-23T04:17:48.387Z,-0.60
2019-01-23T04:20:20.954Z,-0.70
2019-01-23T04:22:50.468Z,-0.70
2019-01-23T04:25:20.043Z,-0.70
2019-01-23T04:27:49.505Z,-0.80
2019-01-23T04:30:21.465Z,-0.80
2019-01-23T04:32:50.895Z,-0.80
2019-01-23T04:35:20.306Z,-0.80
2019-01-23T04:37:49.754Z,-0.80
2019-01-23T04:40:19.206Z,-0.80
2019-01-23T04:42:48.681Z,-0.80
2019-01-23T04:45:18.056Z,-0.90
2019-01-23T04:47:47.518Z,-0.90
2019-01-23T04:50:18.231Z,-1.00
2019-01-23T04:53:10.146Z,-1.10
2019-01-23T04:55:41.015Z,-1.10
2019-01-23T04:58:10.503Z,-1.20
2019-01-23T05:00:40.007Z,-1.20
2019-01-23T05:03:09.454Z,-1.30
2019-01-23T05:05:38.895Z,-1.30
2019-01-23T05:08:08.344Z,-1.40
2019-01-23T05:10:37.805Z,-1.40
2019-01-23T05:13:07.268Z,-1.50
2019-01-23T05:15:36.725Z,-1.50
2019-01-23T05:18:06.222Z,-1.60
2019-01-23T05:20:35.623Z,-1.60
2019-01-23T05:23:05.077Z,-1.60
2019-01-23T05:25:34.477Z,-1.70
2019-01-23T05:28:04.028Z,-1.70
2019-01-23T05:30:33.525Z,-1.70
2019-01-23T05:33:02.922Z,-1.80
2019-01-23T05:35:32.383Z,-2.00
2019-01-23T05:38:01.871Z,-2.10
2019-01-23T05:40:31.584Z,-2.20
2019-01-23T05:43:01.068Z,-2.30
2019-01-23T05:45:30.525Z,-2.30
2019-01-23T05:47:59.986Z,-2.50
2019-01-23T05:50:29.485Z,-2.60
2019-01-23T05:52:58.977Z,-2.60
2019-01-23T05:55:28.466Z,-2.60
2019-01-23T05:57:57.888Z,-2.50
2019-01-23T06:00:27.397Z,-2.40
2019-01-23T06:02:56.868Z,-2.40
2019-01-23T06:05:26.436Z,-2.40
2019-01-23T06:07:55.928Z,-2.60
2019-01-23T06:10:25.654Z,-2.70
2019-01-23T06:12:55.187Z,-2.80
2019-01-23T06:15:24.705Z,-2.90
2019-01-23T06:17:54.277Z,-2.90
2019-01-23T06:20:24.055Z,-3.00
2019-01-23T06:22:53.589Z,-3.00
2019-01-23T06:25:23.198Z,-3.20
2019-01-23T06:27:52.697Z,-3.20
2019-01-23T06:30:24.105Z,-3.00
2019-01-23T06:32:53.567Z,-2.80
2019-01-23T06:35:23.036Z,-2.80
2019-01-23T06:37:52.485Z,-2.70
2019-01-23T06:40:21.920Z,-2.80
2019-01-23T06:42:51.413Z,-2.90
2019-01-23T06:45:20.843Z,-3.00
2019-01-23T06:47:51.519Z,-3.10
2019-01-23T06:50:22.325Z,-3.10
2019-01-23T06:52:51.769Z,-3.10
2019-01-23T06:55:21.394Z,-3.20
2019-01-23T06:57:50.860Z,-3.20
2019-01-23T07:00:27.685Z,-3.10
2019-01-23T07:02:57.628Z,-3.10
2019-01-23T07:05:27.111Z,-3.00
2019-01-23T07:07:56.733Z,-2.90
2019-01-23T07:10:27.074Z,-2.90
2019-01-23T07:12:56.602Z,-2.90
2019-01-23T07:15:26.078Z,-2.90
2019-01-23T07:17:55.548Z,-3.00
2019-01-23T07:20:28.884Z,-3.10
2019-01-23T07:22:58.391Z,-3.10
2019-01-23T07:25:28.582Z,-3.10
2019-01-23T07:27:58.098Z,-3.10
2019-01-23T07:30:40.358Z,-3.20
2019-01-23T07:33:09.839Z,-3.20
2019-01-23T07:35:39.314Z,-3.20
2019-01-23T07:38:08.810Z,-3.20
2019-01-23T07:40:38.278Z,-3.30
2019-01-23T07:43:07.830Z,-3.20
2019-01-23T07:45:37.336Z,-3.20
2019-01-23T07:48:06.828Z,-3.20
2019-01-23T07:50:36.266Z,-3.10
2019-01-23T07:53:05.902Z,-3.00
2019-01-23T07:55:35.311Z,-3.00
2019-01-23T07:58:04.909Z,-2.90
2019-01-23T08:00:34.508Z,-2.90
2019-01-23T08:03:03.912Z,-2.80
2019-01-23T08:05:33.351Z,-2.70
2019-01-23T08:08:02.817Z,-2.70
2019-01-23T08:10:32.295Z,-2.80
2019-01-23T08:13:01.752Z,-2.90
2019-01-23T08:15:34.487Z,-3.00
2019-01-23T08:18:04.315Z,-3.00
2019-01-23T08:20:33.818Z,-3.10
2019-01-23T08:23:03.294Z,-3.20
2019-01-23T08:25:32.836Z,-3.20
2019-01-23T08:28:02.375Z,-3.30
2019-01-23T08:30:38.417Z,-3.30
2019-01-23T08:33:02.971Z,-3.20
2019-01-23T08:35:32.593Z,-3.20
2019-01-23T08:38:02.063Z,-3.20
2019-01-23T08:40:34.159Z,-3.10
2019-01-23T08:43:03.775Z,-3.00
2019-01-23T08:45:33.175Z,-2.90
2019-01-23T08:48:02.701Z,-2.80
2019-01-23T08:50:44.726Z,-2.70
2019-01-23T08:53:14.572Z,-2.70
2019-01-23T08:55:44.105Z,-2.70
2019-01-23T08:58:13.489Z,-2.60
2019-01-23T09:00:45.888Z,-2.50
2019-01-23T09:03:14.497Z,-2.40
2019-01-23T09:05:43.935Z,-2.30
2019-01-23T09:08:13.387Z,-2.30
2019-01-23T09:10:42.886Z,-2.20
2019-01-23T09:13:12.322Z,-2.10
2019-01-23T09:15:41.681Z,-2.10
2019-01-23T09:18:11.062Z,-2.00
2019-01-23T09:20:40.438Z,-1.90
2019-01-23T09:23:09.941Z,-1.80
2019-01-23T09:25:39.373Z,-1.70
2019-01-23T09:28:08.878Z,-1.70
2019-01-23T09:30:56.499Z,-1.60
2019-01-23T09:33:59.114Z,-1.60
2019-01-23T09:36:55.053Z,-1.50
2019-01-23T09:39:56.613Z,-1.40
2019-01-23T09:43:19.166Z,-1.40
2019-01-23T09:46:04.647Z,-1.30
2019-01-23T09:48:48.870Z,-1.20
2019-01-23T09:52:26.289Z,-1.10
2019-01-23T09:54:55.680Z,-1.00
2019-01-23T09:57:25.084Z,-0.90
2019-01-23T09:59:54.397Z,-0.90
2019-01-23T10:02:23.810Z,-0.80
2019-01-23T10:04:53.106Z,-0.70
2019-01-23T10:07:22.430Z,-0.60
2019-01-23T10:09:51.761Z,-0.50
2019-01-23T10:12:21.094Z,-0.50
2019-01-23T10:14:50.438Z,-0.40
2019-01-23T10:17:19.801Z,-0.40
2019-01-23T10:19:49.099Z,-0.30
2019-01-23T10:22:18.445Z,-0.30
2019-01-23T10:24:47.745Z,-0.20
2019-01-23T10:27:17.070Z,-0.20
2019-01-23T10:29:46.377Z,-0.10
2019-01-23T10:32:15.741Z,-0.10
2019-01-23T10:34:45.049Z,0.00
2019-01-23T10:37:19.511Z,0.00
2019-01-23T10:39:45.428Z,0.00
2019-01-23T10:42:14.741Z,0.00
2019-01-23T10:44:44.136Z,0.00
2019-01-23T10:47:13.505Z,0.00
2019-01-23T10:49:42.817Z,0.00
2019-01-23T10:52:12.230Z,0.00
2019-01-23T10:54:41.621Z,0.10
2019-01-23T10:57:11.033Z,0.00
2019-01-23T10:59:40.333Z,0.10
2019-01-23T11:02:09.823Z,0.10
2019-01-23T11:04:39.289Z,0.20
2019-01-23T11:07:08.673Z,0.20
2019-01-23T11:09:38.112Z,0.30
2019-01-23T11:12:07.449Z,0.30
2019-01-23T11:14:36.747Z,0.40
2019-01-23T11:17:06.089Z,0.50
2019-01-23T11:19:35.402Z,0.50
2019-01-23T11:22:04.825Z,0.50
2019-01-23T11:24:34.131Z,0.50
2019-01-23T11:27:03.541Z,0.50
2019-01-23T11:29:32.945Z,0.50
2019-01-23T11:32:02.242Z,0.50
2019-01-23T11:34:31.649Z,0.60
2019-01-23T11:37:01.020Z,0.60
2019-01-23T11:39:30.352Z,0.60
2019-01-23T11:41:59.642Z,0.70
2019-01-23T11:44:28.954Z,0.70
2019-01-23T11:46:58.347Z,0.70
2019-01-23T11:49:27.736Z,0.70
2019-01-23T11:51:57.172Z,0.70
2019-01-23T11:54:26.547Z,0.70
2019-01-23T11:56:55.940Z,0.70
2019-01-23T11:59:25.367Z,0.70
2019-01-23T12:01:56.090Z,0.70
2019-01-23T12:04:25.554Z,0.70
2019-01-23T12:06:54.917Z,0.70
2019-01-23T12:09:24.225Z,0.80
2019-01-23T12:11:53.554Z,0.90
2019-01-23T12:14:22.992Z,0.80
2019-01-23T12:16:52.431Z,0.90
2019-01-23T12:19:21.747Z,1.00
2019-01-23T12:21:51.169Z,1.00
2019-01-23T12:24:20.567Z,1.10
2019-01-23T12:26:49.947Z,1.00
2019-01-23T12:29:19.309Z,1.00
2019-01-23T12:31:48.673Z,1.00
2019-01-23T12:34:18.005Z,0.90
2019-01-23T12:36:47.302Z,0.80
2019-01-23T12:39:16.713Z,0.90
2019-01-23T12:41:46.117Z,0.80
2019-01-23T12:44:15.490Z,0.80
2019-01-23T12:46:44.826Z,0.80
2019-01-23T12:49:14.230Z,0.80
2019-01-23T12:51:43.558Z,0.80
2019-01-23T12:54:12.896Z,0.70
2019-01-23T12:56:42.229Z,0.70
2019-01-23T12:59:11.621Z,0.70
2019-01-23T13:01:42.228Z,0.80
2019-01-23T13:04:11.926Z,0.80
2019-01-23T13:06:41.221Z,0.90
2019-01-23T13:09:10.555Z,0.80
2019-01-23T13:11:39.957Z,0.80
2019-01-23T13:14:09.332Z,0.80
2019-01-23T13:16:38.729Z,0.80
2019-01-23T13:19:08.100Z,0.80
2019-01-23T13:21:37.473Z,0.80
2019-01-23T13:24:06.804Z,0.80
2019-01-23T13:26:36.121Z,0.90
2019-01-23T13:29:05.498Z,0.90
2019-01-23T13:31:34.833Z,0.90
2019-01-23T13:34:04.956Z,0.90
2019-01-23T13:36:34.398Z,0.90
2019-01-23T13:39:05.680Z,0.90
2019-01-23T13:41:35.098Z,0.90
2019-01-23T13:44:04.483Z,1.00
2019-01-23T13:46:33.874Z,1.00
2019-01-23T13:49:03.316Z,1.00
2019-01-23T13:51:32.708Z,1.10
2019-01-23T13:54:02.053Z,1.10
2019-01-23T13:56:31.548Z,1.10
2019-01-23T13:59:00.908Z,1.10
2019-01-23T14:01:30.362Z,1.10
2019-01-23T14:03:59.756Z,1.10
2019-01-23T14:06:29.062Z,1.00
2019-01-23T14:08:58.417Z,1.00
2019-01-23T14:11:27.753Z,1.00
2019-01-23T14:13:57.141Z,1.00
2019-01-23T14:16:26.496Z,1.10
2019-01-23T14:18:55.885Z,1.20
2019-01-23T14:21:25.331Z,1.20
2019-01-23T14:23:55.007Z,1.20
2019-01-23T14:26:24.398Z,1.20
2019-01-23T14:28:53.779Z,1.20
2019-01-23T14:31:23.133Z,1.30
2019-01-23T14:33:52.541Z,1.30
2019-01-23T14:36:21.897Z,1.30
2019-01-23T14:38:51.250Z,1.20
2019-01-23T14:41:20.691Z,1.20
2019-01-23T14:43:50.085Z,1.20
2019-01-23T14:46:19.508Z,1.20
2019-01-23T14:48:48.889Z,1.30
2019-01-23T14:51:18.256Z,1.20
2019-01-23T14:53:47.665Z,1.10
2019-01-23T14:56:16.997Z,1.00
2019-01-23T14:58:46.425Z,1.00
2019-01-23T15:01:15.748Z,1.00
2019-01-23T15:03:45.346Z,1.00
2019-01-23T15:06:14.704Z,1.00
2019-01-23T15:08:44.029Z,0.90
2019-01-23T15:11:13.381Z,0.90
2019-01-23T15:13:42.684Z,0.90
2019-01-23T15:16:12.087Z,0.90
2019-01-23T15:18:41.517Z,0.90
2019-01-23T15:21:10.846Z,0.90
2019-01-23T15:23:40.193Z,0.90
2019-01-23T15:26:09.553Z,0.90
2019-01-23T15:28:39.112Z,1.00
2019-01-23T15:31:08.623Z,1.00
2019-01-23T15:33:38.346Z,1.00
2019-01-23T15:36:07.784Z,1.00
2019-01-23T15:38:37.137Z,1.00
2019-01-23T15:41:06.596Z,0.90
2019-01-23T15:43:36.134Z,0.90
2019-01-23T15:46:08.442Z,0.90
2019-01-23T15:48:39.266Z,0.90
2019-01-23T15:51:08.765Z,0.90
2019-01-23T15:53:38.123Z,0.90
2019-01-23T15:56:07.587Z,0.80
2019-01-23T15:58:37.006Z,0.80
2019-01-23T16:01:06.414Z,0.80
2019-01-23T16:03:35.873Z,0.80
2019-01-23T16:06:05.595Z,0.70
2019-01-23T16:08:35.037Z,0.70
2019-01-23T16:11:04.394Z,0.70
2019-01-23T16:13:33.885Z,0.80
2019-01-23T16:16:03.331Z,0.70
2019-01-23T16:18:32.728Z,0.80
2019-01-23T16:21:02.166Z,0.70
2019-01-23T16:23:31.592Z,0.70
2019-01-23T16:26:01.030Z,0.70
2019-01-23T16:28:30.474Z,0.70
2019-01-23T16:30:59.857Z,0.70
2019-01-23T16:33:29.200Z,0.70
2019-01-23T16:35:58.609Z,0.70
2019-01-23T16:38:28.045Z,0.70
2019-01-23T16:40:57.392Z,0.70
2019-01-23T16:43:27.042Z,0.70
2019-01-23T16:45:56.386Z,0.70
2019-01-23T16:48:25.764Z,0.70
2019-01-23T16:50:55.602Z,0.70
2019-01-23T16:53:25.085Z,0.70
2019-01-23T16:55:54.537Z,0.60
2019-01-23T16:58:24.993Z,0.60
2019-01-23T17:00:54.459Z,0.50
2019-01-23T17:03:24.525Z,0.50
2019-01-23T17:05:55.206Z,0.50
2019-01-23T17:08:24.845Z,0.50
2019-01-23T17:10:54.690Z,0.50
2019-01-23T17:13:24.123Z,0.50
2019-01-23T17:15:53.579Z,0.50
2019-01-23T17:18:22.897Z,0.40
2019-01-23T17:20:52.341Z,0.30
2019-01-23T17:23:21.667Z,0.30
2019-01-23T17:25:50.980Z,0.20
2019-01-23T17:28:20.335Z,0.20
2019-01-23T17:30:49.685Z,0.20
2019-01-23T17:33:19.082Z,0.20
2019-01-23T17:35:48.641Z,0.20
2019-01-23T17:38:18.012Z,0.10
2019-01-23T17:40:47.432Z,0.10
2019-01-23T17:43:17.219Z,0.00
2019-01-23T17:45:46.709Z,0.00
2019-01-23T17:48:16.249Z,-0.10
2019-01-23T17:50:45.596Z,-0.10
2019-01-23T17:53:14.960Z,-0.20
2019-01-23T17:55:44.520Z,-0.20
2019-01-23T17:58:14.920Z,-0.20
2019-01-23T18:00:51.239Z,-0.20
2019-01-23T18:03:20.773Z,-0.20
2019-01-23T18:05:51.232Z,-0.20
2019-01-23T18:08:20.802Z,-0.20
2019-01-23T18:10:50.169Z,-0.20
2019-01-23T18:13:19.557Z,-0.20
2019-01-23T18:15:48.852Z,-0.20
2019-01-23T18:18:18.192Z,-0.30
2019-01-23T18:20:47.506Z,-0.30
2019-01-23T18:23:16.873Z,-0.20
2019-01-23T18:25:46.307Z,-0.20
2019-01-23T18:28:15.664Z,-0.20
2019-01-23T18:31:21.522Z,-0.20
2019-01-23T18:34:37.102Z,-0.20
2019-01-23T18:37:35.149Z,-0.10
2019-01-23T18:40:27.203Z,-0.10
2019-01-23T18:43:17.004Z,-0.10
2019-01-23T18:46:17.820Z,-0.10
2019-01-23T18:49:16.526Z,-0.10
2019-01-23T18:52:08.208Z,-0.10
2019-01-23T18:54:37.585Z,0.00
2019-01-23T18:57:08.361Z,0.00
2019-01-23T18:59:37.791Z,0.00
2019-01-23T19:02:07.520Z,0.00
2019-01-23T19:04:36.942Z,0.00
2019-01-23T19:07:06.342Z,0.00
2019-01-23T19:09:36.697Z,0.00
2019-01-23T19:12:07.651Z,0.00
2019-01-23T19:14:37.991Z,0.00
2019-01-23T19:17:08.714Z,0.00
2019-01-23T19:19:41.259Z,0.00
2019-01-23T19:22:12.077Z,0.00
2019-01-23T19:24:43.160Z,0.00
2019-01-23T19:27:14.080Z,0.00
2019-01-23T19:29:44.494Z,0.00
2019-01-23T19:34:45.857Z,-0.10
2019-01-23T19:37:17.259Z,-0.10
2019-01-23T19:39:48.010Z,-0.10
2019-01-23T19:42:19.292Z,0.00
2019-01-23T19:44:50.029Z,0.00
2019-01-23T19:47:20.566Z,0.00
2019-01-23T19:49:52.000Z,0.00
2019-01-23T19:52:22.415Z,0.00
2019-01-23T19:54:57.464Z,-0.10
2019-01-23T19:57:28.599Z,0.00
2019-01-23T19:59:59.196Z,0.00
2019-01-23T20:02:31.900Z,0.00
2019-01-23T20:05:03.097Z,0.00
2019-01-23T20:07:36.923Z,-0.10
2019-01-23T20:10:14.479Z,-0.10
2019-01-23T20:12:43.244Z,0.00
2019-01-23T20:15:17.557Z,0.00
2019-01-23T20:17:48.573Z,0.00
2019-01-23T20:20:18.110Z,-0.10
2019-01-23T20:22:47.555Z,-0.10
2019-01-23T20:25:20.074Z,-0.10
2019-01-23T20:27:49.545Z,0.00
2019-01-23T20:30:25.268Z,-0.10
2019-01-23T20:32:54.750Z,0.00
2019-01-23T20:35:24.164Z,-0.10
2019-01-23T20:37:53.729Z,-0.10
2019-01-23T20:40:23.321Z,-0.20
2019-01-23T20:42:52.786Z,-0.20
2019-01-23T20:45:22.255Z,-0.30
2019-01-23T20:47:52.177Z,-0.30
2019-01-23T20:50:24.119Z,-0.30
2019-01-23T20:52:53.744Z,-0.30
2019-01-23T20:55:23.412Z,-0.30
2019-01-23T20:57:52.774Z,-0.30
2019-01-23T21:00:24.657Z,-0.40
2019-01-23T21:02:54.246Z,-0.40
2019-01-23T21:05:24.565Z,-0.40
2019-01-23T21:07:54.320Z,-0.50
2019-01-23T21:10:24.805Z,-0.50
2019-01-23T21:12:54.308Z,-0.50
2019-01-23T21:15:32.085Z,-0.50
2019-01-23T21:18:02.381Z,-0.50
2019-01-23T21:20:36.892Z,-0.50
2019-01-23T21:23:06.844Z,-0.50
2019-01-23T21:25:36.200Z,-0.60
2019-01-23T21:28:05.664Z,-0.60
2019-01-23T21:30:35.041Z,-0.50
2019-01-23T21:33:04.740Z,-0.50
2019-01-23T21:35:34.199Z,-0.50
2019-01-23T21:38:03.581Z,-0.50
2019-01-23T21:40:33.911Z,-0.50
2019-01-23T21:43:03.434Z,-0.60
2019-01-23T21:45:35.130Z,-0.60
2019-01-23T21:48:04.674Z,-0.60
2019-01-23T21:50:34.005Z,-0.50
2019-01-23T21:53:03.405Z,-0.60
2019-01-23T21:55:32.756Z,-0.60
2019-01-23T21:58:02.186Z,-0.60
2019-01-23T22:00:40.181Z,-0.70
2019-01-23T22:03:10.337Z,-0.60
2019-01-23T22:05:39.739Z,-0.60
2019-01-23T22:08:09.437Z,-0.60
2019-01-23T22:10:38.815Z,-0.60
2019-01-23T22:13:08.141Z,-0.60
2019-01-23T22:15:37.473Z,-0.60
2019-01-23T22:18:08.245Z,-0.60
2019-01-23T22:20:37.643Z,-0.70
2019-01-23T22:23:07.079Z,-0.60
2019-01-23T22:25:36.509Z,-0.70
